Terminal Aerodrome Forecast
Issued by NWS Binghamton, NY

Home | Current Version | Previous Version | Text Only | Print | Product List | Glossary On
Versions: 1 2 3 4 5 6 7 8 9 10 11 12 13 14 15 16 17 18
000
FTUS41 KBGM 280500 RRA
TAFAVP
TAF
KAVP 280543Z 2806/2906 22005KT P6SM BKN050
      TEMPO 2812/2815 -SHRA OVC025
     FM281500 31010G20KT P6SM OVC025
     FM282000 33008KT P6SM SCT025 BKN045=

USA.gov is the U.S. government's official web portal to all federal, state and local government web resources and services.